< < Back
Terminal Aerodrome Forecast


Current Version              Previous Versions:   1  2  3  4  5  6  7  8  9  

Terminal Aerodrome Forecast

247
FTUS42 KGSP 302130 AAB
TAFAND
TAF AMD
KAND 302130Z 3022/3118 25007KT P6SM FEW050 SCT110
      TEMPO 3022/3024 SCT050 BKN110
     FM310200 22004KT P6SM FEW080 SCT150=

Latest METAR

103
SAUS70 KWBC 302300 RRH
MTRAND
METAR KAND 302256Z AUTO 23007KT 10SM CLR 31/20 A2998 RMK AO2 SLP141
T03060200


USA.gov is the U.S. government's official web portal to all federal, state and local government web resources and services.